Aviation Digital Data Service (ADDS)

Output produced by METARs form (2039 UTC 21 September 2021)
found at http://aviationweather.gov/metar/data/
 
KIPJ 212035Z AUTO 00000KT 10SM OVC007 21/20 A3011 RMK AO2 T02050197
KIPJ 212015Z AUTO 00000KT 10SM -RA OVC007 21/20 A3011 RMK AO2 T02060197
KIPJ 211955Z AUTO 00000KT 10SM -RA OVC007 21/20 A3011 RMK AO2 T02050196